Time;durP1;ratioP1;P1;durP2;ratioP2;P2;SDS_P1;SDS_P2;PMS_P1;PMS_P2;Temp;Humidity;BMP_temperature;BMP_pressure;BME280_temperature;BME280_humidity;BME280_pressure;Samples;Min_cycle;Max_cycle;Signal;HPM_P1;HPM_P2
2022/07/02 00:01:49;;;;;;;1.63;1.10;;;;;;;13.32;80.61;96261.19;5034922;28;20241;-78
2022/07/02 00:04:15;;;;;;;1.37;1.27;;;;;;;13.32;80.49;96261.19;5033624;28;20181;-79
2022/07/02 00:06:42;;;;;;;2.97;1.53;;;;;;;13.30;80.68;96257.91;5001820;28;20202;-79
2022/07/02 00:09:07;;;;;;;1.45;1.00;;;;;;;13.32;81.00;96255.97;5014349;28;20226;-79
2022/07/02 00:11:34;;;;;;;1.85;1.10;;;;;;;13.33;80.84;96254.19;5021238;28;20249;-79
2022/07/02 00:13:59;;;;;;;1.00;1.00;;;;;;;13.25;81.46;96249.72;5034041;28;20185;-79
2022/07/02 00:16:25;;;;;;;0.88;0.88;;;;;;;13.24;81.72;96249.84;5032890;28;20170;-77
2022/07/02 00:18:50;;;;;;;1.02;0.88;;;;;;;13.23;82.37;96251.66;5057971;28;20187;-78
2022/07/02 00:21:16;;;;;;;1.17;1.00;;;;;;;13.24;82.51;96242.84;5057288;28;20233;-78
2022/07/02 00:23:43;;;;;;;1.23;1.10;;;;;;;13.22;83.50;96254.41;5056544;28;20174;-77
2022/07/02 00:26:16;;;;;;;3.10;1.30;;;;;;;13.27;83.37;96241.75;5038347;28;20198;-79
2022/07/02 00:28:42;;;;;;;1.77;1.10;;;;;;;13.25;83.60;96252.34;5035153;28;20198;-78
2022/07/02 00:31:07;;;;;;;1.30;1.20;;;;;;;13.20;84.06;96251.13;5033943;28;20230;-79
2022/07/02 00:33:34;;;;;;;1.10;1.00;;;;;;;13.17;84.02;96249.59;5016931;28;20233;-78
2022/07/02 00:36:00;;;;;;;1.63;1.10;;;;;;;13.16;84.63;96254.94;5015815;28;20187;-78
2022/07/02 00:38:25;;;;;;;1.97;1.00;;;;;;;13.12;84.64;96253.59;5033498;28;20182;-78
2022/07/02 00:40:51;;;;;;;1.30;1.20;;;;;;;13.08;85.05;96255.69;5033235;28;20190;-80
2022/07/02 00:43:18;;;;;;;3.13;1.00;;;;;;;13.05;85.31;96258.56;5017241;28;20573;-79
2022/07/02 00:45:43;;;;;;;1.17;1.00;;;;;;;12.99;85.43;96246.16;5032628;28;20225;-78
2022/07/02 00:48:08;;;;;;;1.10;1.00;;;;;;;12.96;85.45;96249.03;5033322;28;20539;-80
2022/07/02 00:50:34;;;;;;;1.90;1.40;;;;;;;12.95;85.54;96250.00;5017275;28;20320;-79
2022/07/02 00:52:59;;;;;;;1.27;1.10;;;;;;;12.92;85.72;96251.13;5035467;28;20183;-79
2022/07/02 00:55:24;;;;;;;1.20;1.10;;;;;;;12.88;86.39;96251.53;5017155;28;20321;-79
2022/07/02 00:57:50;;;;;;;3.30;1.20;;;;;;;12.85;86.70;96249.22;5035361;28;20270;-79
2022/07/02 01:00:16;;;;;;;1.37;1.10;;;;;;;12.85;86.63;96249.22;5033533;28;20211;-79
2022/07/02 01:02:46;;;;;;;2.43;1.40;;;;;;;12.83;86.58;96251.97;5034295;28;20541;-79
2022/07/02 01:05:18;;;;;;;2.30;1.10;;;;;;;12.85;86.92;96239.63;5033205;28;20190;-79
2022/07/02 01:07:46;;;;;;;2.40;1.20;;;;;;;12.87;86.99;96242.06;5033918;28;20568;-79
2022/07/02 01:10:17;;;;;;;1.20;1.10;;;;;;;12.84;87.43;96248.41;5032549;28;20274;-78
2022/07/02 01:12:48;;;;;;;3.23;1.23;;;;;;;12.88;87.46;96241.09;5032559;28;20182;-78
2022/07/02 01:15:14;;;;;;;3.77;1.20;;;;;;;12.88;87.63;96235.88;5031558;28;20201;-78
2022/07/02 01:17:40;;;;;;;1.40;0.90;;;;;;;12.87;87.76;96231.66;5015898;28;20182;-79
2022/07/02 01:20:06;;;;;;;1.87;1.37;;;;;;;12.87;88.06;96231.66;5031875;28;20202;-79
2022/07/02 01:22:33;;;;;;;2.43;1.20;;;;;;;12.85;88.32;96236.19;5011984;28;20194;-80
2022/07/02 01:24:58;;;;;;;1.20;1.10;;;;;;;12.83;88.37;96227.69;4995231;28;20646;-79
2022/07/02 01:27:24;;;;;;;1.03;1.00;;;;;;;12.81;88.47;96230.47;5012602;28;20190;-79
2022/07/02 01:29:49;;;;;;;4.67;1.47;;;;;;;12.77;88.63;96224.69;5012117;28;20211;-79
2022/07/02 01:32:15;;;;;;;2.30;1.10;;;;;;;12.75;88.35;96231.84;5012196;28;20290;-79
2022/07/02 01:34:42;;;;;;;1.57;1.00;;;;;;;12.75;88.66;96228.41;4995789;28;20211;-79
2022/07/02 01:37:09;;;;;;;1.17;1.07;;;;;;;12.71;89.21;96224.44;5012564;28;20254;-79
2022/07/02 01:39:36;;;;;;;3.57;1.17;;;;;;;12.68;89.21;96225.56;5012189;28;20279;-79
2022/07/02 01:42:02;;;;;;;1.53;0.90;;;;;;;12.69;89.04;96228.97;5012090;28;20599;-78
2022/07/02 01:44:27;;;;;;;1.30;1.20;;;;;;;12.59;89.78;96225.59;5011669;28;20190;-79
2022/07/02 01:46:52;;;;;;;1.27;1.17;;;;;;;12.57;89.74;96230.97;5012731;28;20191;-80
2022/07/02 01:49:18;;;;;;;2.77;1.07;;;;;;;12.53;89.87;96224.38;5012809;28;20194;-79
2022/07/02 01:51:43;;;;;;;0.90;0.90;;;;;;;12.54;89.56;96222.59;5012485;28;20218;-79
2022/07/02 01:54:08;;;;;;;1.97;1.10;;;;;;;12.50;90.17;96227.28;5012596;28;20226;-79
2022/07/02 01:56:34;;;;;;;1.23;1.13;;;;;;;12.56;89.77;96229.31;5012270;28;20179;-79
2022/07/02 01:58:59;;;;;;;1.63;1.23;;;;;;;12.51;90.06;96228.09;5012531;28;20178;-79
2022/07/02 02:01:24;;;;;;;2.47;1.13;;;;;;;12.48;90.43;96229.22;5011349;28;20198;-79
2022/07/02 02:03:50;;;;;;;1.47;1.10;;;;;;;12.47;90.89;96227.56;5012047;28;20553;-80
2022/07/02 02:06:15;;;;;;;1.03;1.00;;;;;;;12.45;90.54;96219.88;5012379;28;20588;-79
2022/07/02 02:08:40;;;;;;;3.60;1.10;;;;;;;12.44;90.97;96225.22;4996323;28;20187;-79
2022/07/02 02:11:06;;;;;;;1.70;1.10;;;;;;;12.37;91.47;96218.97;5012494;28;20214;-79
2022/07/02 02:13:31;;;;;;;3.10;1.10;;;;;;;12.36;91.10;96222.53;5012260;28;20191;-79
2022/07/02 02:15:56;;;;;;;2.70;1.10;;;;;;;12.35;92.40;96218.28;5011664;28;20297;-79
2022/07/02 02:18:21;;;;;;;1.37;1.00;;;;;;;12.40;91.84;96216.09;5012291;28;20312;-79
2022/07/02 02:20:47;;;;;;;1.63;1.13;;;;;;;12.45;91.53;96229.47;5011856;28;20195;-79
2022/07/02 02:23:12;;;;;;;1.37;1.00;;;;;;;12.55;91.70;96219.88;5010935;28;20393;-78
2022/07/02 02:25:37;;;;;;;1.13;1.03;;;;;;;12.52;91.99;96209.72;5010701;28;20541;-80
2022/07/02 02:28:03;;;;;;;2.77;1.30;;;;;;;12.56;92.69;96218.09;5011136;28;20183;-78
2022/07/02 02:30:29;;;;;;;2.10;1.27;;;;;;;12.63;93.91;96209.56;5011718;28;20686;-78
2022/07/02 02:32:55;;;;;;;1.87;1.50;;;;;;;12.78;94.31;96220.31;5012028;28;20602;-79
2022/07/02 02:35:20;;;;;;;2.37;1.30;;;;;;;12.70;94.04;96213.19;5011217;28;20183;-78
2022/07/02 02:37:45;;;;;;;1.40;1.30;;;;;;;12.72;94.01;96216.50;5011469;28;20713;-79
2022/07/02 02:40:10;;;;;;;1.70;1.50;;;;;;;12.74;93.77;96217.19;5012394;28;20203;-79
2022/07/02 02:42:36;;;;;;;1.87;1.43;;;;;;;12.77;93.35;96214.28;5011719;28;20199;-78
2022/07/02 02:45:01;;;;;;;1.80;1.40;;;;;;;12.88;93.13;96222.84;5011749;28;20536;-79
2022/07/02 02:47:27;;;;;;;1.43;1.30;;;;;;;12.83;93.19;96217.28;5012456;28;20643;-79
2022/07/02 02:49:52;;;;;;;2.20;1.53;;;;;;;12.86;93.26;96222.19;5013596;28;20191;-79
2022/07/02 02:52:17;;;;;;;1.60;1.50;;;;;;;12.85;93.30;96220.56;4996489;28;20207;-79
2022/07/02 02:54:43;;;;;;;1.40;1.30;;;;;;;12.81;93.23;96217.44;5011273;28;20183;-79
2022/07/02 02:57:08;;;;;;;1.33;1.17;;;;;;;12.84;93.71;96224.13;5011569;28;20211;-80
2022/07/02 02:59:34;;;;;;;1.47;1.37;;;;;;;12.84;93.82;96222.34;5011502;28;20185;-79
2022/07/02 03:01:59;;;;;;;1.73;1.33;;;;;;;12.90;94.01;96226.16;5011885;28;20249;-79
2022/07/02 03:04:24;;;;;;;1.33;1.23;;;;;;;12.94;93.84;96227.50;5011658;28;20210;-79
2022/07/02 03:06:49;;;;;;;4.20;1.30;;;;;;;12.97;94.06;96229.81;5011565;28;20180;-78
2022/07/02 03:09:15;;;;;;;1.63;1.30;;;;;;;13.05;94.12;96227.28;5012778;28;20210;-78
2022/07/02 03:11:40;;;;;;;1.77;1.40;;;;;;;12.89;93.55;96232.31;5012627;28;20203;-78
2022/07/02 03:14:05;;;;;;;1.83;1.40;;;;;;;13.04;94.11;96225.66;5014322;28;20265;-79
2022/07/02 03:16:31;;;;;;;1.50;1.30;;;;;;;12.95;94.05;96226.53;5015056;28;20183;-78
2022/07/02 03:18:56;;;;;;;1.20;1.10;;;;;;;13.00;94.24;96234.75;5016712;28;20233;-80
2022/07/02 03:21:21;;;;;;;1.60;1.30;;;;;;;12.94;94.25;96223.09;5015506;28;20263;-79
2022/07/02 03:23:47;;;;;;;1.47;1.37;;;;;;;12.92;94.09;96229.44;5013308;28;20232;-79
2022/07/02 03:26:12;;;;;;;1.50;1.40;;;;;;;12.93;94.23;96236.28;5014946;28;20179;-79
2022/07/02 03:28:37;;;;;;;1.50;1.40;;;;;;;12.91;94.27;96238.22;5015330;28;20279;-79
2022/07/02 03:31:02;;;;;;;2.10;1.30;;;;;;;12.93;94.21;96238.91;5014703;28;20403;-79
2022/07/02 03:33:28;;;;;;;1.30;1.20;;;;;;;12.95;94.14;96240.38;4998572;28;20186;-79
2022/07/02 03:35:53;;;;;;;2.20;1.43;;;;;;;12.93;93.97;96233.69;5016063;28;20270;-78
2022/07/02 03:38:18;;;;;;;2.33;1.40;;;;;;;12.92;93.98;96232.88;5014848;28;20258;-80
2022/07/02 03:40:44;;;;;;;1.77;1.30;;;;;;;12.94;93.96;96233.53;5014836;28;20195;-78
2022/07/02 03:43:09;;;;;;;2.03;1.40;;;;;;;12.96;93.77;96231.59;5015302;28;20187;-79
2022/07/02 03:45:34;;;;;;;1.30;1.20;;;;;;;12.98;93.93;96241.88;5015205;28;20183;-79
2022/07/02 03:48:00;;;;;;;1.77;1.50;;;;;;;13.01;93.80;96241.59;5016242;28;20186;-79
2022/07/02 03:50:25;;;;;;;1.47;1.20;;;;;;;13.13;93.03;96240.41;5015047;28;20206;-79
2022/07/02 03:52:50;;;;;;;1.77;1.30;;;;;;;13.13;93.36;96245.63;5015344;28;20560;-80
2022/07/02 03:55:16;;;;;;;1.87;1.20;;;;;;;13.70;92.32;96242.81;5015751;28;20198;-79
2022/07/02 03:57:41;;;;;;;2.17;1.30;;;;;;;15.41;86.50;96246.41;5015679;28;20553;-79
2022/07/02 04:00:07;;;;;;;1.80;0.90;;;;;;;17.19;76.63;96255.91;5015271;28;20281;-78
2022/07/02 04:02:32;;;;;;;1.98;0.90;;;;;;;18.94;64.94;96258.50;5015020;28;20563;-79
2022/07/02 04:04:57;;;;;;;0.98;0.82;;;;;;;19.80;59.27;96262.19;5015477;28;20175;-79
2022/07/02 04:07:23;;;;;;;1.52;0.70;;;;;;;19.96;57.86;96262.91;4997949;28;20179;-79
2022/07/02 04:09:48;;;;;;;1.20;0.80;;;;;;;21.33;53.06;96266.75;4997812;28;20210;-77
2022/07/02 04:12:13;;;;;;;2.75;0.80;;;;;;;22.45;51.90;96260.91;5013165;28;20274;-78
2022/07/02 04:14:39;;;;;;;1.95;0.77;;;;;;;22.49;51.24;96261.28;5013874;28;20710;-77
2022/07/02 04:17:05;;;;;;;2.03;0.70;;;;;;;22.92;48.70;96258.22;5013649;28;20182;-78
2022/07/02 04:19:30;;;;;;;0.70;0.63;;;;;;;24.26;42.99;96258.19;5014215;28;20216;-79
2022/07/02 04:21:56;;;;;;;0.90;0.63;;;;;;;23.84;43.99;96265.00;5012964;28;20172;-79
2022/07/02 04:24:21;;;;;;;0.88;0.82;;;;;;;23.27;45.51;96259.53;5012727;28;20183;-79
2022/07/02 04:26:46;;;;;;;1.67;0.73;;;;;;;23.46;45.47;96263.94;5014227;28;20188;-79
2022/07/02 04:29:12;;;;;;;0.70;0.70;;;;;;;23.57;45.33;96266.94;5013719;28;20185;-79
2022/07/02 04:31:37;;;;;;;0.50;0.50;;;;;;;24.57;42.95;96260.81;5013747;28;20199;-79
2022/07/02 04:34:02;;;;;;;0.80;0.80;;;;;;;24.96;42.16;96258.00;5013144;28;20187;-78
2022/07/02 04:36:27;;;;;;;1.27;0.77;;;;;;;25.46;41.70;96261.34;5014342;28;20214;-78
2022/07/02 04:38:53;;;;;;;0.80;0.70;;;;;;;26.39;40.06;96265.38;5013987;28;20666;-79
2022/07/02 04:41:18;;;;;;;0.70;0.68;;;;;;;27.05;38.77;96264.28;5013616;28;20195;-79
2022/07/02 04:43:43;;;;;;;0.70;0.70;;;;;;;26.78;38.46;96264.72;5012689;28;20218;-79
2022/07/02 04:46:09;;;;;;;1.48;0.80;;;;;;;27.22;36.92;96262.53;5012997;28;20186;-79
2022/07/02 04:48:34;;;;;;;0.80;0.80;;;;;;;28.79;35.33;96269.09;5013093;28;20183;-79
2022/07/02 04:50:59;;;;;;;0.80;0.60;;;;;;;27.59;36.21;96265.66;5013978;28;20211;-79
2022/07/02 04:53:25;;;;;;;1.25;0.70;;;;;;;28.21;34.68;96265.75;5012905;28;20180;-80
2022/07/02 04:55:50;;;;;;;0.82;0.70;;;;;;;28.47;35.11;96260.88;5012810;28;20202;-79
2022/07/02 04:58:15;;;;;;;0.70;0.70;;;;;;;28.97;34.77;96268.84;5013424;28;20191;-80
2022/07/02 05:00:40;;;;;;;1.77;0.80;;;;;;;29.14;32.67;96268.81;5014416;28;20222;-81
2022/07/02 05:03:06;;;;;;;2.28;0.80;;;;;;;29.17;33.70;96265.66;5013083;28;20182;-80
2022/07/02 05:05:31;;;;;;;0.70;0.70;;;;;;;29.26;33.37;96271.38;5012125;28;20179;-80
2022/07/02 05:07:56;;;;;;;0.70;0.70;;;;;;;30.83;31.07;96274.06;5012449;28;20294;-79
2022/07/02 05:10:23;;;;;;;1.35;0.90;;;;;;;30.29;30.60;96277.63;5017216;28;20591;-80
2022/07/02 05:12:48;;;;;;;0.40;0.40;;;;;;;31.24;30.44;96280.53;5034242;28;20670;-80
2022/07/02 05:15:13;;;;;;;1.52;0.80;;;;;;;29.83;31.65;96281.72;5015615;28;20182;-80
2022/07/02 05:17:39;;;;;;;0.77;0.77;;;;;;;29.21;33.58;96266.78;5033774;28;20179;-80
2022/07/02 05:20:05;;;;;;;0.60;0.60;;;;;;;29.06;33.42;96259.34;5031905;28;20209;-80
2022/07/02 05:22:30;;;;;;;1.42;0.90;;;;;;;30.90;30.50;96274.66;5015260;28;20661;-80
2022/07/02 05:24:55;;;;;;;0.60;0.60;;;;;;;32.18;27.97;96274.16;5014325;28;20206;-80
2022/07/02 05:27:20;;;;;;;1.60;0.85;;;;;;;29.49;32.87;96265.81;5015474;28;20217;-80
2022/07/02 05:29:46;;;;;;;0.70;0.68;;;;;;;30.75;30.13;96267.34;5031786;28;20541;-80
2022/07/02 05:32:11;;;;;;;1.02;0.93;;;;;;;30.67;31.59;96271.31;5031831;28;20202;-81
2022/07/02 05:34:36;;;;;;;1.20;0.80;;;;;;;30.52;31.02;96273.81;5031304;28;20194;-80
2022/07/02 05:37:02;;;;;;;1.85;0.70;;;;;;;30.22;31.56;96268.22;5021883;28;20240;-80
2022/07/02 05:39:27;;;;;;;0.60;0.60;;;;;;;31.44;29.41;96274.44;5011928;28;20635;-80
2022/07/02 05:41:55;;;;;;;1.90;0.77;;;;;;;31.57;29.33;96272.09;5033493;28;20206;-80
2022/07/02 05:44:20;;;;;;;0.90;0.80;;;;;;;31.90;27.92;96277.31;5054394;28;20208;-80
2022/07/02 05:46:45;;;;;;;0.60;0.60;;;;;;;33.42;25.80;96281.91;5053247;28;20186;-79
2022/07/02 05:49:11;;;;;;;1.13;0.80;;;;;;;31.26;29.06;96283.75;5051650;28;20261;-80
2022/07/02 05:51:36;;;;;;;1.75;0.75;;;;;;;31.18;29.13;96290.38;5043414;28;20708;-80
2022/07/02 05:54:01;;;;;;;0.98;0.77;;;;;;;31.07;29.21;96286.03;5015371;28;20186;-80
2022/07/02 05:56:26;;;;;;;0.70;0.70;;;;;;;31.18;29.39;96286.88;5032728;28;20175;-79
2022/07/02 05:58:52;;;;;;;1.77;0.75;;;;;;;31.96;27.84;96282.41;5031872;28;20661;-79
2022/07/02 06:01:17;;;;;;;1.45;0.70;;;;;;;32.03;28.41;96295.59;5014337;28;20209;-81
2022/07/02 06:03:45;;;;;;;1.00;0.60;;;;;;;32.77;26.05;96297.84;5029976;28;20178;-79
2022/07/02 06:08:55;;;;;;;1.35;0.70;;;;;;;31.28;28.62;96301.22;5032930;28;20166;-80
2022/07/02 06:11:20;;;;;;;1.10;0.68;;;;;;;31.32;28.53;96301.50;5032316;28;20210;-80
2022/07/02 06:13:45;;;;;;;0.75;0.75;;;;;;;30.88;30.03;96298.25;5015732;28;20676;-80
2022/07/02 06:16:11;;;;;;;0.88;0.85;;;;;;;31.24;29.23;96292.06;5033520;28;20519;-80
2022/07/02 06:18:38;;;;;;;1.52;0.70;;;;;;;31.97;28.70;96292.09;5033048;28;20197;-80
2022/07/02 06:21:04;;;;;;;1.63;0.80;;;;;;;30.56;30.30;96291.00;5034556;28;20205;-80
2022/07/02 06:23:29;;;;;;;1.42;0.60;;;;;;;31.48;28.92;96286.28;5033935;28;20178;-79
2022/07/02 06:25:55;;;;;;;0.60;0.60;;;;;;;30.98;29.40;96287.59;5033268;28;20178;-80
2022/07/02 06:28:20;;;;;;;1.05;0.68;;;;;;;31.20;28.27;96292.81;5016048;28;20185;-79
2022/07/02 06:30:45;;;;;;;0.60;0.60;;;;;;;29.55;31.80;96280.88;5032241;28;20228;-79
2022/07/02 06:33:10;;;;;;;0.82;0.63;;;;;;;30.87;30.07;96284.03;5032259;28;20265;-79
2022/07/02 06:35:36;;;;;;;1.05;0.50;;;;;;;33.81;26.28;96290.06;5014919;28;20200;-79
2022/07/02 06:38:02;;;;;;;1.77;0.75;;;;;;;32.13;27.66;96285.69;5015210;28;20183;-80
2022/07/02 06:40:27;;;;;;;0.60;0.60;;;;;;;32.34;27.90;96299.19;5032151;28;20547;-79
2022/07/02 06:42:52;;;;;;;0.93;0.70;;;;;;;31.64;27.97;96285.28;5015378;28;20229;-79
2022/07/02 06:45:17;;;;;;;2.70;0.60;;;;;;;30.96;28.82;96289.72;5031294;28;20546;-79
2022/07/02 06:47:43;;;;;;;3.03;0.75;;;;;;;30.86;28.65;96295.03;5016234;28;20657;-79
2022/07/02 06:50:09;;;;;;;2.35;0.70;;;;;;;30.96;28.78;96298.56;5036282;28;20236;-79
2022/07/02 06:52:35;;;;;;;0.88;0.70;;;;;;;31.28;28.39;96293.16;5019928;28;20198;-79
2022/07/02 06:55:00;;;;;;;0.82;0.80;;;;;;;31.39;28.96;96282.47;5035834;28;20178;-79
2022/07/02 06:57:25;;;;;;;0.70;0.60;;;;;;;30.73;29.53;96290.88;5019643;28;20587;-79
2022/07/02 06:59:52;;;;;;;0.80;0.80;;;;;;;30.00;29.89;96290.47;5036158;28;20194;-79
2022/07/02 07:02:17;;;;;;;2.30;0.95;;;;;;;31.08;28.68;96294.88;5019407;28;20628;-79
2022/07/02 07:04:42;;;;;;;1.95;0.80;;;;;;;29.58;30.75;96283.03;5035629;28;20556;-79
2022/07/02 07:07:09;;;;;;;3.45;0.90;;;;;;;30.92;28.22;96293.97;5035934;28;20170;-80
2022/07/02 07:09:35;;;;;;;1.58;0.65;;;;;;;30.41;29.55;96288.22;5019899;28;20187;-80
2022/07/02 07:12:04;;;;;;;1.75;0.60;;;;;;;30.10;28.11;96285.25;5035833;28;20563;-79
2022/07/02 07:14:29;;;;;;;1.02;0.60;;;;;;;30.33;28.73;96286.81;5019058;28;20233;-79
2022/07/02 07:16:55;;;;;;;0.70;0.70;;;;;;;30.66;28.10;96285.78;5036020;28;20187;-79
2022/07/02 07:19:20;;;;;;;0.88;0.70;;;;;;;29.77;30.39;96283.53;5036110;28;20185;-79
2022/07/02 07:21:46;;;;;;;0.98;0.75;;;;;;;29.95;29.65;96279.72;5035371;28;20217;-78
2022/07/02 07:24:13;;;;;;;2.45;0.90;;;;;;;29.74;30.76;96281.34;5018212;28;20556;-81
2022/07/02 07:26:39;;;;;;;2.60;0.63;;;;;;;30.62;28.97;96284.63;5018211;28;20233;-80
2022/07/02 07:29:07;;;;;;;0.60;0.60;;;;;;;30.41;28.54;96277.50;5017946;28;20170;-79
2022/07/02 07:31:34;;;;;;;0.73;0.50;;;;;;;29.93;30.25;96272.97;5035835;28;20195;-79
2022/07/02 07:33:59;;;;;;;1.52;0.65;;;;;;;29.22;30.43;96275.59;5017662;28;20206;-80
2022/07/02 07:36:26;;;;;;;1.02;0.68;;;;;;;29.45;29.58;96271.88;5017286;28;20194;-79
2022/07/02 07:38:52;;;;;;;1.50;0.60;;;;;;;28.96;30.49;96272.56;5018645;28;20212;-81
2022/07/02 07:41:18;;;;;;;0.70;0.70;;;;;;;29.00;30.31;96264.88;5018797;28;20198;-80
2022/07/02 07:43:43;;;;;;;0.73;0.70;;;;;;;28.64;30.27;96271.56;5033630;28;20226;-82
2022/07/02 07:46:08;;;;;;;0.50;0.50;;;;;;;28.40;30.33;96263.69;5018418;28;20179;-81
2022/07/02 07:48:34;;;;;;;1.13;0.70;;;;;;;27.72;30.40;96269.94;5034005;28;20182;-80
2022/07/02 07:50:59;;;;;;;1.38;0.52;;;;;;;26.53;32.13;96274.78;5034501;28;20280;-80
2022/07/02 07:53:25;;;;;;;1.67;0.55;;;;;;;27.74;31.72;96267.84;5034865;28;20171;-80
2022/07/02 07:55:50;;;;;;;0.75;0.50;;;;;;;27.45;31.47;96266.16;5017031;28;20188;-79
2022/07/02 07:58:16;;;;;;;0.73;0.60;;;;;;;26.58;32.51;96268.75;5034302;28;20198;-80
2022/07/02 08:00:41;;;;;;;1.95;0.70;;;;;;;26.75;31.82;96269.69;5034143;28;20199;-80
2022/07/02 08:03:07;;;;;;;1.45;0.70;;;;;;;26.87;32.23;96269.72;5017887;28;20194;-81
2022/07/02 08:05:32;;;;;;;2.15;0.70;;;;;;;26.44;32.81;96260.19;5033294;28;20174;-80
2022/07/02 08:07:58;;;;;;;0.80;0.80;;;;;;;26.37;33.17;96254.94;5033799;28;20186;-80
2022/07/02 08:10:23;;;;;;;1.35;0.65;;;;;;;26.50;32.47;96256.59;5017314;28;20203;-80
2022/07/02 08:12:49;;;;;;;1.05;0.65;;;;;;;25.87;35.47;96259.78;5033790;28;20202;-79
2022/07/02 08:15:15;;;;;;;1.17;0.63;;;;;;;26.50;34.81;96251.28;5032755;28;20659;-80
2022/07/02 08:17:40;;;;;;;2.58;0.90;;;;;;;26.11;35.04;96252.69;5033664;28;20228;-80
2022/07/02 08:20:07;;;;;;;1.73;1.15;;;;;;;25.29;36.87;96241.72;5017003;28;20217;-80
2022/07/02 08:22:32;;;;;;;0.65;0.65;;;;;;;26.21;35.06;96245.75;5033419;28;20175;-79
2022/07/02 08:24:58;;;;;;;1.85;0.75;;;;;;;25.74;36.51;96250.16;5015833;28;20187;-79
2022/07/02 08:27:23;;;;;;;1.02;0.82;;;;;;;25.84;36.66;96244.28;5035076;28;20175;-79
2022/07/02 08:29:48;;;;;;;0.95;0.77;;;;;;;25.77;35.30;96254.19;5016756;28;20217;-79
2022/07/02 08:32:14;;;;;;;1.02;0.73;;;;;;;24.79;36.38;96242.63;5016885;28;20213;-79
2022/07/02 08:34:39;;;;;;;0.73;0.60;;;;;;;24.94;36.83;96244.13;5016096;28;20260;-81
2022/07/02 08:37:05;;;;;;;1.70;0.85;;;;;;;24.20;37.65;96243.09;5034783;28;20716;-78
2022/07/02 08:39:30;;;;;;;4.28;0.90;;;;;;;23.63;38.66;96235.13;5034541;28;20712;-78
2022/07/02 08:41:57;;;;;;;1.10;0.80;;;;;;;23.65;39.32;96237.56;5018205;28;20187;-78
2022/07/02 08:44:24;;;;;;;1.00;0.60;;;;;;;23.99;38.67;96229.19;5019588;28;20198;-78
2022/07/02 08:46:50;;;;;;;1.00;0.80;;;;;;;23.72;39.53;96231.19;5035274;28;20187;-78
2022/07/02 08:49:18;;;;;;;0.75;0.60;;;;;;;23.72;38.96;96225.91;5035049;28;20183;-78
2022/07/02 08:51:52;;;;;;;2.22;0.80;;;;;;;23.77;39.25;96219.97;5035334;28;20277;-77
2022/07/02 08:54:17;;;;;;;1.85;0.90;;;;;;;23.74;40.62;96218.53;5033385;28;20194;-78
2022/07/02 08:56:42;;;;;;;1.95;0.70;;;;;;;23.66;40.20;96223.28;5033734;28;20182;-78
2022/07/02 08:59:08;;;;;;;1.33;0.70;;;;;;;23.55;40.08;96223.94;5016602;28;20178;-78
2022/07/02 09:01:33;;;;;;;0.60;0.60;;;;;;;23.68;40.73;96213.28;5033887;28;20206;-79
2022/07/02 09:03:59;;;;;;;1.05;0.70;;;;;;;23.78;39.05;96205.69;5015652;28;20182;-79
2022/07/02 09:06:31;;;;;;;0.88;0.60;;;;;;;23.05;39.07;96202.53;5031617;28;20268;-78
2022/07/02 09:08:56;;;;;;;1.85;0.57;;;;;;;23.67;38.53;96191.25;5023657;28;20206;-78
2022/07/02 09:11:22;;;;;;;0.50;0.50;;;;;;;23.59;39.37;96198.59;5021302;28;20936;-79
2022/07/02 09:13:48;;;;;;;1.13;0.60;;;;;;;23.91;36.82;96189.66;5022049;28;20250;-79
2022/07/02 09:16:13;;;;;;;1.60;0.90;;;;;;;23.79;36.01;96193.22;5017505;28;20221;-78
2022/07/02 09:18:39;;;;;;;1.73;0.65;;;;;;;23.93;36.27;96194.75;5013481;28;20211;-78
2022/07/02 09:21:04;;;;;;;0.57;0.50;;;;;;;24.10;33.70;96197.69;5013327;28;20569;-79
2022/07/02 09:23:29;;;;;;;1.63;0.75;;;;;;;24.17;33.50;96199.25;5029224;28;20608;-78
2022/07/02 09:25:54;;;;;;;0.60;0.50;;;;;;;24.02;33.47;96204.06;5014287;28;20179;-78
2022/07/02 09:28:20;;;;;;;1.65;0.57;;;;;;;24.16;35.28;96202.13;5027745;28;20277;-78
2022/07/02 09:30:45;;;;;;;3.22;0.82;;;;;;;24.28;34.65;96200.38;5013119;28;20203;-78
2022/07/02 09:33:31;;;;;;;0.93;0.60;;;;;;;24.41;33.98;96207.47;5021152;28;20191;-78
2022/07/02 09:35:57;;;;;;;0.77;0.50;;;;;;;24.18;33.23;96198.22;5022609;28;20246;-78
2022/07/02 09:38:22;;;;;;;0.60;0.60;;;;;;;24.38;34.54;96205.22;5016023;28;20179;-78
2022/07/02 09:41:01;;;;;;;0.63;0.50;;;;;;;24.30;34.01;96206.31;5011523;28;20206;-78
2022/07/02 09:43:32;;;;;;;1.70;0.63;;;;;;;24.69;33.06;96209.63;5011763;28;20175;-78
2022/07/02 09:45:59;;;;;;;0.82;0.70;;;;;;;24.67;33.72;96214.38;5027191;28;20198;-79
2022/07/02 09:48:24;;;;;;;1.25;0.60;;;;;;;24.48;33.64;96210.88;5019095;28;20527;-79
2022/07/02 09:50:49;;;;;;;1.25;0.57;;;;;;;24.52;32.72;96206.75;5032652;28;20281;-79
2022/07/02 09:53:15;;;;;;;0.40;0.40;;;;;;;24.38;33.31;96206.03;5016235;28;20221;-79
2022/07/02 09:55:40;;;;;;;1.95;0.60;;;;;;;24.45;32.22;96208.63;5007030;28;20277;-79
2022/07/02 09:58:06;;;;;;;3.05;0.60;;;;;;;24.43;33.39;96200.91;5031758;28;20399;-78
2022/07/02 10:00:35;;;;;;;0.65;0.65;;;;;;;24.76;33.50;96205.88;5032385;28;20194;-78
2022/07/02 10:03:01;;;;;;;1.00;0.50;;;;;;;24.90;33.70;96211.03;5032294;28;20285;-79
2022/07/02 10:05:33;;;;;;;2.13;0.50;;;;;;;24.93;32.67;96207.97;5031076;28;20182;-78
2022/07/02 10:08:00;;;;;;;0.82;0.50;;;;;;;24.67;32.42;96201.91;5005339;28;20648;-79
2022/07/02 10:10:36;;;;;;;1.75;0.55;;;;;;;24.61;33.30;96200.09;5020864;28;20202;-79
2022/07/02 10:13:02;;;;;;;2.58;0.70;;;;;;;24.67;32.59;96203.75;5022537;28;20199;-79
2022/07/02 10:15:32;;;;;;;1.13;0.80;;;;;;;24.49;33.87;96194.72;5020554;28;20325;-79
2022/07/02 10:18:00;;;;;;;0.98;0.60;;;;;;;24.61;33.44;96189.50;5021941;28;20709;-78
2022/07/02 10:20:25;;;;;;;2.03;0.60;;;;;;;24.37;32.85;96182.38;5025679;28;20698;-79
2022/07/02 10:22:51;;;;;;;1.40;0.85;;;;;;;24.31;34.95;96192.00;5033180;28;20198;-80
2022/07/02 10:25:20;;;;;;;0.90;0.90;;;;;;;24.64;34.80;96197.00;5018784;28;20175;-81
2022/07/02 10:27:46;;;;;;;0.60;0.60;;;;;;;24.68;33.94;96194.75;5019701;28;20180;-81
2022/07/02 10:30:21;;;;;;;2.65;0.55;;;;;;;25.05;34.78;96196.38;5036191;28;20206;-80
2022/07/02 10:33:07;;;;;;;0.80;0.57;;;;;;;24.89;34.65;96191.63;5019973;28;20232;-81
2022/07/02 10:35:36;;;;;;;0.60;0.50;;;;;;;25.13;32.39;96187.31;5036195;28;20212;-80
2022/07/02 10:38:02;;;;;;;1.45;0.60;;;;;;;25.01;33.51;96186.41;5036865;28;20179;-81
2022/07/02 10:40:27;;;;;;;0.80;0.77;;;;;;;24.88;34.18;96182.06;5035838;28;20194;-80
2022/07/02 10:42:53;;;;;;;2.30;0.50;;;;;;;25.02;35.53;96182.72;5019269;28;20228;-81
2022/07/02 10:45:22;;;;;;;1.88;0.70;;;;;;;25.02;35.11;96190.69;5036192;28;20530;-80
2022/07/02 10:48:01;;;;;;;1.08;0.60;;;;;;;24.97;35.15;96186.03;5015230;28;20717;-83
2022/07/02 10:50:44;;;;;;;0.77;0.40;;;;;;;25.03;34.03;96185.19;5011967;28;20217;-80
2022/07/02 10:53:10;;;;;;;0.93;0.50;;;;;;;24.63;34.83;96173.34;5005116;28;20180;-80
2022/07/02 10:55:36;;;;;;;2.13;0.50;;;;;;;24.95;35.17;96177.47;5026129;28;20195;-80
2022/07/02 10:58:04;;;;;;;0.77;0.63;;;;;;;25.00;33.57;96185.59;5015757;28;20587;-81
2022/07/02 11:00:32;;;;;;;0.95;0.90;;;;;;;24.84;34.38;96170.25;5014254;28;20207;-82
2022/07/02 11:03:12;;;;;;;1.20;0.90;;;;;;;25.10;35.23;96172.63;5009467;28;20221;-80
2022/07/02 11:05:59;;;;;;;2.00;0.85;;;;;;;24.82;33.87;96167.78;5015420;28;20628;-80
2022/07/02 11:08:50;;;;;;;0.45;0.45;;;;;;;24.76;35.04;96168.69;5013648;28;20722;-81
2022/07/02 11:11:21;;;;;;;3.63;0.70;;;;;;;24.74;34.04;96168.13;5018919;28;20218;-81
2022/07/02 11:13:54;;;;;;;0.80;0.55;;;;;;;24.70;33.57;96166.13;5013395;28;20198;-81
2022/07/02 11:16:41;;;;;;;2.15;0.70;;;;;;;24.72;34.04;96167.50;5032217;28;20198;-80
2022/07/02 11:19:14;;;;;;;0.55;0.55;;;;;;;24.90;34.43;96173.84;5040842;28;20175;-82
2022/07/02 11:21:40;;;;;;;1.02;0.55;;;;;;;24.76;33.21;96163.38;5036425;28;20199;-82
2022/07/02 11:24:06;;;;;;;2.53;0.57;;;;;;;25.04;34.57;96160.22;5037079;28;20231;-82
2022/07/02 11:26:32;;;;;;;1.08;0.70;;;;;;;25.39;32.73;96164.91;5019801;28;20259;-81
2022/07/02 11:29:03;;;;;;;1.75;0.52;;;;;;;25.55;33.23;96161.59;5039190;28;20160;-83
2022/07/02 11:31:28;;;;;;;1.63;0.47;;;;;;;25.38;31.72;96157.97;5025662;28;21035;-80
2022/07/02 11:33:54;;;;;;;0.60;0.60;;;;;;;25.19;31.75;96153.72;5023035;28;20209;-81